createdAt,value
2019-06-20T00:02:40.387Z,4.28
2019-06-20T00:06:44.712Z,4.70
2019-06-20T00:10:49.078Z,4.37
2019-06-20T00:14:53.633Z,5.42
2019-06-20T00:18:57.968Z,3.70
2019-06-20T00:23:02.485Z,4.17
2019-06-20T00:27:06.912Z,5.78
2019-06-20T00:31:11.234Z,6.17
2019-06-20T00:35:15.525Z,6.60
2019-06-20T00:39:19.833Z,5.58
2019-06-20T00:43:24.143Z,4.65
2019-06-20T00:47:28.712Z,6.45
2019-06-20T00:51:33.004Z,4.65
2019-06-20T00:55:37.691Z,6.05
2019-06-20T00:59:42.010Z,3.95
2019-06-20T01:03:46.537Z,5.20
2019-06-20T01:07:50.866Z,4.55
2019-06-20T01:11:55.420Z,6.28
2019-06-20T01:15:59.712Z,4.35
2019-06-20T01:20:05.224Z,5.08
2019-06-20T01:24:09.543Z,5.05
2019-06-20T01:28:13.845Z,4.97
2019-06-20T01:32:18.175Z,5.47
2019-06-20T01:36:22.528Z,4.80
2019-06-20T01:40:26.887Z,6.47
2019-06-20T01:44:31.417Z,7.00
2019-06-20T01:48:35.739Z,4.58
2019-06-20T01:52:40.152Z,6.78
2019-06-20T01:56:44.463Z,6.60
2019-06-20T02:00:50.976Z,5.15
2019-06-20T02:04:56.299Z,8.35
2019-06-20T02:09:00.750Z,5.53
2019-06-20T02:13:05.040Z,7.20
2019-06-20T02:17:09.695Z,7.80
2019-06-20T02:21:13.981Z,6.12
2019-06-20T02:25:18.398Z,6.35
2019-06-20T02:29:22.701Z,5.70
2019-06-20T02:33:27.015Z,5.30
2019-06-20T02:37:31.657Z,4.85
2019-06-20T02:41:36.578Z,6.35
2019-06-20T02:45:41.140Z,5.58
2019-06-20T02:49:45.438Z,6.62
2019-06-20T02:53:50.212Z,6.58
2019-06-20T02:57:54.504Z,5.03
2019-06-20T03:01:59.004Z,6.72
2019-06-20T03:06:03.301Z,5.70
2019-06-20T03:10:08.137Z,6.78
2019-06-20T03:14:12.499Z,7.03
2019-06-20T03:18:16.842Z,6.50
2019-06-20T03:22:21.163Z,7.20
2019-06-20T03:26:25.461Z,5.97
2019-06-20T03:30:30.130Z,6.62
2019-06-20T03:34:34.428Z,4.87
2019-06-20T03:38:39.019Z,7.70
2019-06-20T03:42:43.330Z,6.53
2019-06-20T03:46:48.025Z,7.62
2019-06-20T03:50:52.317Z,6.25
2019-06-20T03:54:56.640Z,6.90
2019-06-20T03:59:00.993Z,6.70
2019-06-20T04:03:06.599Z,6.90
2019-06-20T04:07:11.185Z,5.85
2019-06-20T04:11:15.494Z,6.47
2019-06-20T04:15:19.904Z,6.05
2019-06-20T04:19:24.198Z,6.62
2019-06-20T04:23:28.600Z,6.33
2019-06-20T04:27:33.378Z,6.80
2019-06-20T04:31:37.909Z,6.75
2019-06-20T04:35:42.527Z,7.55
2019-06-20T04:39:46.863Z,8.13
2019-06-20T04:43:51.190Z,10.58
2019-06-20T04:47:55.827Z,9.28
2019-06-20T04:52:00.142Z,7.75
2019-06-20T04:56:05.894Z,8.60
2019-06-20T05:00:11.508Z,8.28
2019-06-20T05:04:15.829Z,8.65
2019-06-20T05:08:20.124Z,7.28
2019-06-20T05:12:24.613Z,8.60
2019-06-20T05:16:28.964Z,7.97
2019-06-20T05:20:33.822Z,7.15
2019-06-20T05:24:38.139Z,9.15
2019-06-20T05:28:42.463Z,7.17
2019-06-20T05:32:48.442Z,9.63
2019-06-20T05:36:52.761Z,9.28
2019-06-20T05:40:57.324Z,6.53
2019-06-20T05:45:01.617Z,9.48
2019-06-20T05:49:05.946Z,11.28
2019-06-20T05:53:10.666Z,10.93
2019-06-20T05:57:15.255Z,9.88
2019-06-20T06:01:19.563Z,10.95
2019-06-20T06:05:24.127Z,10.75
2019-06-20T06:09:28.443Z,14.75
2019-06-20T06:13:32.780Z,12.88
2019-06-20T06:17:37.113Z,12.82
2019-06-20T06:21:41.764Z,15.95
2019-06-20T06:25:46.209Z,14.85
2019-06-20T06:29:50.530Z,17.17
2019-06-20T06:33:55.699Z,16.35
2019-06-20T06:38:00.037Z,17.85
2019-06-20T06:42:04.685Z,20.77
2019-06-20T06:46:09.133Z,20.05
2019-06-20T06:50:13.927Z,20.23
2019-06-20T06:54:18.213Z,17.73
2019-06-20T06:58:22.541Z,21.68
2019-06-20T07:02:26.846Z,16.95
2019-06-20T07:06:31.177Z,17.73
2019-06-20T07:10:35.638Z,17.10
2019-06-20T07:14:42.706Z,17.92
2019-06-20T07:18:46.189Z,17.12
2019-06-20T07:22:50.650Z,16.45
2019-06-20T07:26:55.190Z,10.63
2019-06-20T07:30:59.548Z,13.78
2019-06-20T07:35:03.887Z,11.33
2019-06-20T07:39:09.828Z,12.30
2019-06-20T07:43:14.195Z,13.13
2019-06-20T07:47:18.481Z,11.93
2019-06-20T07:51:22.812Z,10.60
2019-06-20T07:55:27.141Z,9.33
2019-06-20T07:59:31.496Z,7.92
2019-06-20T08:03:36.090Z,10.25
2019-06-20T08:07:40.425Z,10.80
2019-06-20T08:11:45.015Z,11.85
2019-06-20T08:15:49.323Z,9.50
2019-06-20T08:19:53.653Z,7.90
2019-06-20T08:23:58.139Z,10.23
2019-06-20T08:28:02.577Z,9.50
2019-06-20T08:32:07.032Z,8.90
2019-06-20T08:36:11.339Z,7.78
2019-06-20T08:40:16.150Z,8.23
2019-06-20T08:44:20.638Z,6.50
2019-06-20T08:48:24.966Z,7.03
2019-06-20T08:52:29.284Z,7.97
2019-06-20T08:56:33.859Z,9.48
2019-06-20T09:00:38.804Z,4.95
2019-06-20T09:04:43.159Z,4.55
2019-06-20T09:08:47.490Z,4.17
2019-06-20T09:12:53.650Z,3.35
2019-06-20T09:16:59.231Z,5.55
2019-06-20T09:21:04.348Z,4.12
2019-06-20T09:25:09.051Z,4.92
2019-06-20T09:29:13.655Z,3.95
2019-06-20T09:33:19.064Z,5.62
2019-06-20T09:37:23.604Z,4.30
2019-06-20T09:41:27.925Z,3.77
2019-06-20T09:45:32.388Z,3.77
2019-06-20T09:49:36.676Z,4.25
2019-06-20T09:53:41.252Z,4.10
2019-06-20T09:57:45.541Z,4.40
2019-06-20T10:01:51.375Z,4.17
2019-06-20T10:05:56.708Z,4.78
2019-06-20T10:10:01.354Z,4.65
2019-06-20T10:14:06.257Z,5.42
2019-06-20T10:18:10.764Z,4.62
2019-06-20T10:22:15.057Z,4.00
2019-06-20T10:26:19.388Z,4.45
2019-06-20T10:30:24.505Z,3.77
2019-06-20T10:34:31.157Z,4.10
2019-06-20T10:38:34.887Z,4.90
2019-06-20T10:42:39.594Z,5.15
2019-06-20T10:46:44.595Z,4.12
2019-06-20T10:50:50.232Z,4.03
2019-06-20T10:54:54.695Z,4.35
2019-06-20T10:58:58.985Z,3.98
2019-06-20T11:03:03.321Z,4.10
2019-06-20T11:07:07.631Z,3.50
2019-06-20T11:11:13.533Z,3.83
2019-06-20T11:15:18.978Z,3.62
2019-06-20T11:19:23.408Z,4.28
2019-06-20T11:23:27.702Z,5.45
2019-06-20T11:27:32.224Z,3.92
2019-06-20T11:31:37.615Z,4.47
2019-06-20T11:35:43.429Z,4.22
2019-06-20T11:39:47.860Z,4.15
2019-06-20T11:43:52.723Z,5.12
2019-06-20T11:47:58.628Z,3.52
2019-06-20T11:52:03.205Z,4.20
2019-06-20T11:56:07.528Z,4.05
2019-06-20T12:00:13.965Z,5.03
2019-06-20T12:04:18.369Z,3.85
2019-06-20T12:08:22.848Z,4.12
2019-06-20T12:12:27.134Z,3.85
2019-06-20T12:16:31.477Z,3.80
2019-06-20T12:20:35.812Z,4.05
2019-06-20T12:24:41.680Z,4.92
2019-06-20T12:28:46.621Z,4.70
2019-06-20T12:32:51.045Z,4.40
2019-06-20T12:36:55.419Z,4.37
2019-06-20T12:40:59.795Z,4.22
2019-06-20T12:45:04.488Z,4.53
2019-06-20T12:49:09.084Z,4.90
2019-06-20T12:53:13.875Z,4.58
2019-06-20T12:57:18.242Z,4.20
2019-06-20T13:01:35.037Z,3.90
2019-06-20T13:05:28.905Z,7.40
2019-06-20T13:09:33.386Z,5.78
2019-06-20T13:13:38.956Z,3.83
2019-06-20T13:17:44.966Z,4.10
2019-06-20T13:21:49.771Z,4.42
2019-06-20T13:25:54.135Z,3.50
2019-06-20T13:29:58.808Z,5.33
2019-06-20T13:34:03.138Z,3.50
2019-06-20T13:38:07.762Z,4.15
2019-06-20T13:42:12.083Z,3.80
2019-06-20T13:46:16.437Z,3.35
2019-06-20T13:50:22.024Z,3.72
2019-06-20T13:54:26.514Z,4.15
2019-06-20T13:58:30.950Z,3.72
2019-06-20T14:02:35.236Z,3.30
2019-06-20T14:06:42.084Z,3.05
2019-06-20T14:11:06.516Z,3.92
2019-06-20T14:15:11.545Z,3.05
2019-06-20T14:19:16.978Z,3.10
2019-06-20T14:23:21.646Z,4.25
2019-06-20T14:27:25.934Z,2.55
2019-06-20T14:31:31.443Z,3.87
2019-06-20T14:35:35.772Z,2.47
2019-06-20T14:39:40.117Z,2.20
2019-06-20T14:43:46.106Z,2.42
2019-06-20T14:47:52.276Z,2.45
2019-06-20T14:51:56.618Z,2.50
2019-06-20T14:56:01.042Z,2.87
2019-06-20T15:00:06.194Z,2.60
2019-06-20T15:04:10.497Z,3.27
2019-06-20T15:08:14.852Z,3.52
2019-06-20T15:12:20.000Z,3.22
2019-06-20T15:16:24.537Z,4.85
2019-06-20T15:20:28.842Z,3.10
2019-06-20T15:24:33.433Z,4.47
2019-06-20T15:28:37.740Z,3.95
2019-06-20T15:32:55.849Z,4.60
2019-06-20T15:36:49.772Z,3.10
2019-06-20T15:40:55.426Z,2.20
2019-06-20T15:44:59.852Z,3.00
2019-06-20T15:49:15.816Z,2.20
2019-06-20T15:53:10.443Z,2.58
2019-06-20T15:57:14.935Z,2.22
2019-06-20T16:01:19.259Z,4.20
2019-06-20T16:05:23.814Z,5.20
2019-06-20T16:09:28.744Z,5.15
2019-06-20T16:18:05.184Z,5.55
2019-06-20T16:22:09.555Z,4.75
2019-06-20T16:26:13.832Z,4.40
2019-06-20T16:30:20.041Z,5.35
2019-06-20T16:34:24.558Z,7.40
2019-06-20T16:38:28.909Z,4.70
2019-06-20T16:42:33.331Z,5.28
2019-06-20T16:46:37.800Z,6.12
2019-06-20T16:50:42.196Z,4.75
2019-06-20T16:54:46.558Z,7.12
2019-06-20T16:58:51.360Z,4.42
2019-06-20T17:02:55.712Z,4.30
2019-06-20T17:07:00.066Z,4.42
2019-06-20T17:11:05.735Z,3.90
2019-06-20T17:15:10.507Z,4.17
2019-06-20T17:19:15.095Z,5.50
2019-06-20T17:23:19.447Z,5.03
2019-06-20T17:27:24.016Z,4.50
2019-06-20T17:31:28.367Z,5.35
2019-06-20T17:35:32.933Z,4.47
2019-06-20T17:39:39.529Z,5.55
2019-06-20T17:43:44.148Z,7.12
2019-06-20T17:47:48.477Z,3.22
2019-06-20T17:51:53.149Z,2.45
2019-06-20T17:55:57.793Z,3.40
2019-06-20T18:00:02.728Z,2.20
2019-06-20T18:04:13.850Z,2.20
2019-06-20T18:08:15.373Z,2.87
2019-06-20T18:12:19.982Z,3.92
2019-06-20T18:16:25.522Z,2.50
2019-06-20T18:20:30.077Z,2.90
2019-06-20T18:24:36.876Z,2.40
2019-06-20T18:28:41.250Z,3.25
2019-06-20T18:32:45.707Z,2.62
2019-06-20T18:36:50.098Z,3.75
2019-06-20T18:40:54.509Z,3.08
2019-06-20T18:44:58.854Z,3.00
2019-06-20T18:49:03.445Z,2.83
2019-06-20T18:53:07.745Z,2.30
2019-06-20T18:57:12.294Z,4.55
2019-06-20T19:01:16.659Z,2.30
2019-06-20T19:05:21.321Z,3.95
2019-06-20T19:09:25.664Z,3.58
2019-06-20T19:13:30.178Z,2.45
2019-06-20T19:17:34.530Z,3.12
2019-06-20T19:21:38.870Z,2.50
2019-06-20T19:25:43.229Z,2.55
2019-06-20T19:29:49.786Z,2.65
2019-06-20T19:33:54.466Z,3.33
2019-06-20T19:37:58.770Z,2.72
2019-06-20T19:42:03.154Z,3.17
2019-06-20T19:46:07.740Z,3.17
2019-06-20T19:50:12.343Z,2.37
2019-06-20T19:54:16.999Z,2.40
2019-06-20T19:58:21.307Z,2.75
2019-06-20T20:02:25.820Z,3.98
2019-06-20T20:06:30.188Z,2.65
2019-06-20T20:10:45.942Z,3.80
2019-06-20T20:14:50.257Z,3.92
2019-06-20T20:18:54.839Z,4.20
2019-06-20T20:22:59.182Z,1.90
2019-06-20T20:27:03.776Z,1.95
2019-06-20T20:31:08.194Z,1.47
2019-06-20T20:35:13.002Z,1.15
2019-06-20T20:39:17.322Z,2.05
2019-06-20T20:43:21.658Z,1.85
2019-06-20T20:47:28.418Z,3.30
2019-06-20T20:51:32.315Z,1.00
2019-06-20T20:55:37.018Z,1.57
2019-06-20T20:59:41.339Z,4.25
2019-06-20T21:03:45.710Z,2.83
2019-06-20T21:07:50.125Z,2.40
2019-06-20T21:11:54.486Z,1.65
2019-06-20T21:15:59.011Z,1.32
2019-06-20T21:20:03.369Z,1.10
2019-06-20T21:24:07.995Z,2.35
2019-06-20T21:28:12.487Z,2.35
2019-06-20T21:32:16.834Z,0.85
2019-06-20T21:36:21.179Z,1.00
2019-06-20T21:40:25.585Z,1.10
2019-06-20T21:44:30.275Z,0.75
2019-06-20T21:48:34.731Z,1.67
2019-06-20T21:52:39.172Z,0.60
2019-06-20T21:56:43.484Z,1.52
2019-06-20T22:00:51.456Z,0.62
2019-06-20T22:04:55.787Z,0.85
2019-06-20T22:09:00.292Z,0.75
2019-06-20T22:13:04.975Z,0.70
2019-06-20T22:17:09.329Z,0.57
2019-06-20T22:21:13.638Z,0.60
2019-06-20T22:25:18.487Z,0.60
2019-06-20T22:29:22.771Z,0.80
2019-06-20T22:33:27.088Z,0.70
2019-06-20T22:37:31.383Z,0.60
2019-06-20T22:41:35.789Z,0.95
2019-06-20T22:45:40.360Z,0.68
2019-06-20T22:49:44.683Z,1.00
2019-06-20T22:53:49.040Z,0.70
2019-06-20T22:57:53.413Z,1.05
2019-06-20T23:01:57.728Z,0.60
2019-06-20T23:06:01.023Z,0.50
2019-06-20T23:10:10.675Z,0.60
2019-06-20T23:14:12.445Z,0.80
2019-06-20T23:18:16.793Z,0.70
2019-06-20T23:22:21.156Z,0.60
2019-06-20T23:26:25.440Z,0.60
2019-06-20T23:30:29.983Z,0.50
2019-06-20T23:34:34.734Z,0.60
2019-06-20T23:38:39.240Z,0.55
2019-06-20T23:42:43.655Z,0.60
2019-06-20T23:46:48.267Z,0.65
2019-06-20T23:50:52.600Z,0.62
2019-06-20T23:54:56.987Z,0.70
2019-06-20T23:59:01.337Z,0.60
